Hauptseite
METAR-TAF:

METAR-TAF

Flughäfen :

Aeropuerto de Alicante

Alicante, Spanien

Breite: 38-17N, Länge: 000-33W, Höhe: 43 m

Beobachtung

Neuester Wetterbericht von vor 41 Minuten, um 20:30 UTC
Wind 4 kt aus West/Nordwest
Temperatur 11°C
Luftfeuchtigkeit 87%
Luftdruck 1024 hPa
Sichtweite 10 km oder mehr
keine Wolken unter 1500 m und keine Kumulonimbus oder Gewitterwolken

METAR: LEAL 072030Z 29004KT CAVOK 11/09 Q1024 NOSIG

Zeit: 22:11 (21:11 UTC)

Prognose

Neuester Wetterbericht von vor 4 Stunden und 11 Minuten, um 17:00 UTC
Gültige Prognose vom 07 um 18 UTC bis 08 um 18 UTC
Wind 5 kt aus West/Nordwest
Sichtweite 10 km oder mehr
Leicht bewölkt in der Höhe von 4000 ft
Übergehend zu
vom 08 um 11 UTC bis 08 um 14 UTC
Wind 10 kt aus West/Nordwest

TAF: LEAL 071700Z 0718/0818 30005KT 9999 FEW040 TX19/0813Z TN08/0806Z BECMG 0811/0814 30010KT

Wetterbeobachtungen und Prognosen von mehr als 4000 Flughäfen (METAR und TAF Bericht).

Die verfügbaren Stationen werden durch gelbe und rote Markierungen auf der Karte dargestellt.

Führen Sie die Maus auf sie, um den Namen der Station zu sehen.

Darauf klicken, um die Beobachtung von Wetterbeobachtungen und Prognosen zu sehen.

Um die Karte zu ändern : klicken Sie auf den grünen Tasten mit einem schwarzen Kreuz Zum Vergrößern, auf den grünen Button mit einem Gedankenstrich zu verkleinern, oder auf die grünen Pfeile für benachbarte Karten.


METAR-TAF: